sensor_id;sensor_type;location;lat;lon;timestamp;temperature;humidity
16964;DHT22;8598;50.508;10.436;2023-07-13T00:02:19;17.90;99.90
16964;DHT22;8598;50.508;10.436;2023-07-13T00:04:46;17.80;99.90
16964;DHT22;8598;50.508;10.436;2023-07-13T00:07:12;17.80;99.90
16964;DHT22;8598;50.508;10.436;2023-07-13T00:09:40;17.60;99.90
16964;DHT22;8598;50.508;10.436;2023-07-13T00:12:23;17.50;99.90
16964;DHT22;8598;50.508;10.436;2023-07-13T00:14:50;17.30;99.90
16964;DHT22;8598;50.508;10.436;2023-07-13T00:17:16;17.20;99.90
16964;DHT22;8598;50.508;10.436;2023-07-13T00:19:44;17.10;99.90
16964;DHT22;8598;50.508;10.436;2023-07-13T00:22:12;16.90;99.90
16964;DHT22;8598;50.508;10.436;2023-07-13T00:24:38;16.90;99.90
16964;DHT22;8598;50.508;10.436;2023-07-13T00:27:07;16.80;99.90
16964;DHT22;8598;50.508;10.436;2023-07-13T00:29:34;16.80;99.90
16964;DHT22;8598;50.508;10.436;2023-07-13T00:32:01;16.70;99.90
16964;DHT22;8598;50.508;10.436;2023-07-13T00:34:28;16.60;99.90
16964;DHT22;8598;50.508;10.436;2023-07-13T00:36:56;16.40;99.90
16964;DHT22;8598;50.508;10.436;2023-07-13T00:39:22;16.20;99.90
16964;DHT22;8598;50.508;10.436;2023-07-13T00:41:49;16.10;99.90
16964;DHT22;8598;50.508;10.436;2023-07-13T00:44:20;15.90;99.90
16964;DHT22;8598;50.508;10.436;2023-07-13T00:46:48;15.90;99.90
16964;DHT22;8598;50.508;10.436;2023-07-13T00:49:16;15.80;99.90
16964;DHT22;8598;50.508;10.436;2023-07-13T00:51:46;15.70;99.90
16964;DHT22;8598;50.508;10.436;2023-07-13T00:54:19;15.60;99.90
16964;DHT22;8598;50.508;10.436;2023-07-13T00:56:49;15.50;99.90
16964;DHT22;8598;50.508;10.436;2023-07-13T00:59:17;15.40;99.90
16964;DHT22;8598;50.508;10.436;2023-07-13T01:01:45;15.40;99.90
16964;DHT22;8598;50.508;10.436;2023-07-13T01:04:11;15.30;99.90
16964;DHT22;8598;50.508;10.436;2023-07-13T01:06:39;15.20;99.90
16964;DHT22;8598;50.508;10.436;2023-07-13T01:09:08;15.30;99.90
16964;DHT22;8598;50.508;10.436;2023-07-13T01:11:37;15.10;99.90
16964;DHT22;8598;50.508;10.436;2023-07-13T01:14:04;15.00;99.90
16964;DHT22;8598;50.508;10.436;2023-07-13T01:16:32;14.80;99.90
16964;DHT22;8598;50.508;10.436;2023-07-13T01:19:00;14.70;99.90
16964;DHT22;8598;50.508;10.436;2023-07-13T01:21:32;14.50;99.90
16964;DHT22;8598;50.508;10.436;2023-07-13T01:23:59;14.40;99.90
16964;DHT22;8598;50.508;10.436;2023-07-13T01:26:26;14.30;99.90
16964;DHT22;8598;50.508;10.436;2023-07-13T01:28:52;14.20;99.90
16964;DHT22;8598;50.508;10.436;2023-07-13T01:31:21;14.20;99.90
16964;DHT22;8598;50.508;10.436;2023-07-13T01:33:48;14.20;99.90
16964;DHT22;8598;50.508;10.436;2023-07-13T01:36:15;14.10;99.90
16964;DHT22;8598;50.508;10.436;2023-07-13T01:38:43;14.10;99.90
16964;DHT22;8598;50.508;10.436;2023-07-13T01:41:10;14.10;99.90
16964;DHT22;8598;50.508;10.436;2023-07-13T01:43:36;14.30;99.90
16964;DHT22;8598;50.508;10.436;2023-07-13T01:46:03;14.30;99.90
16964;DHT22;8598;50.508;10.436;2023-07-13T01:48:29;14.30;99.90
16964;DHT22;8598;50.508;10.436;2023-07-13T01:50:56;14.40;99.90
16964;DHT22;8598;50.508;10.436;2023-07-13T01:53:22;14.50;99.90
16964;DHT22;8598;50.508;10.436;2023-07-13T01:55:50;14.50;99.90
16964;DHT22;8598;50.508;10.436;2023-07-13T01:58:17;14.50;99.90
16964;DHT22;8598;50.508;10.436;2023-07-13T02:00:44;14.50;99.90
16964;DHT22;8598;50.508;10.436;2023-07-13T02:03:10;14.60;99.90
16964;DHT22;8598;50.508;10.436;2023-07-13T02:05:37;14.60;99.90
16964;DHT22;8598;50.508;10.436;2023-07-13T02:08:04;14.70;99.90
16964;DHT22;8598;50.508;10.436;2023-07-13T02:10:30;14.80;99.90
16964;DHT22;8598;50.508;10.436;2023-07-13T02:12:58;14.90;99.90
16964;DHT22;8598;50.508;10.436;2023-07-13T02:15:25;14.90;99.90
16964;DHT22;8598;50.508;10.436;2023-07-13T02:17:51;15.00;99.90
16964;DHT22;8598;50.508;10.436;2023-07-13T02:20:18;15.00;99.90
16964;DHT22;8598;50.508;10.436;2023-07-13T02:22:45;15.10;99.90
16964;DHT22;8598;50.508;10.436;2023-07-13T02:25:11;15.10;99.90
16964;DHT22;8598;50.508;10.436;2023-07-13T02:27:38;15.00;99.90
16964;DHT22;8598;50.508;10.436;2023-07-13T02:30:10;15.10;99.90
16964;DHT22;8598;50.508;10.436;2023-07-13T02:32:37;15.00;99.90
16964;DHT22;8598;50.508;10.436;2023-07-13T02:35:04;15.00;99.90
16964;DHT22;8598;50.508;10.436;2023-07-13T02:37:31;14.80;99.90
16964;DHT22;8598;50.508;10.436;2023-07-13T02:39:58;14.50;99.90
16964;DHT22;8598;50.508;10.436;2023-07-13T02:42:24;14.30;99.90
16964;DHT22;8598;50.508;10.436;2023-07-13T02:44:51;14.20;99.90
16964;DHT22;8598;50.508;10.436;2023-07-13T02:47:19;14.20;99.90
16964;DHT22;8598;50.508;10.436;2023-07-13T02:49:45;14.00;99.90
16964;DHT22;8598;50.508;10.436;2023-07-13T02:52:12;13.80;99.90
16964;DHT22;8598;50.508;10.436;2023-07-13T02:54:39;13.80;99.90
16964;DHT22;8598;50.508;10.436;2023-07-13T02:57:06;13.70;99.90
16964;DHT22;8598;50.508;10.436;2023-07-13T02:59:32;13.50;99.90
16964;DHT22;8598;50.508;10.436;2023-07-13T03:02:00;13.50;99.90
16964;DHT22;8598;50.508;10.436;2023-07-13T03:04:29;13.30;99.90
16964;DHT22;8598;50.508;10.436;2023-07-13T03:06:55;13.20;99.90
16964;DHT22;8598;50.508;10.436;2023-07-13T03:09:23;13.10;99.90
16964;DHT22;8598;50.508;10.436;2023-07-13T03:11:52;12.90;99.90
16964;DHT22;8598;50.508;10.436;2023-07-13T03:14:19;12.80;99.90
16964;DHT22;8598;50.508;10.436;2023-07-13T03:16:45;12.80;99.90
16964;DHT22;8598;50.508;10.436;2023-07-13T03:19:12;12.80;99.90
16964;DHT22;8598;50.508;10.436;2023-07-13T03:21:40;12.70;99.90
16964;DHT22;8598;50.508;10.436;2023-07-13T03:24:07;12.50;99.90
16964;DHT22;8598;50.508;10.436;2023-07-13T03:26:33;12.40;99.90
16964;DHT22;8598;50.508;10.436;2023-07-13T03:29:00;12.60;99.90
16964;DHT22;8598;50.508;10.436;2023-07-13T03:31:28;12.60;99.90
16964;DHT22;8598;50.508;10.436;2023-07-13T03:33:56;12.50;99.90
16964;DHT22;8598;50.508;10.436;2023-07-13T03:36:26;12.60;99.90
16964;DHT22;8598;50.508;10.436;2023-07-13T03:38:55;12.50;99.90
16964;DHT22;8598;50.508;10.436;2023-07-13T03:41:23;12.40;99.90
16964;DHT22;8598;50.508;10.436;2023-07-13T03:43:51;12.40;99.90
16964;DHT22;8598;50.508;10.436;2023-07-13T03:46:18;12.30;99.90
16964;DHT22;8598;50.508;10.436;2023-07-13T03:48:46;12.20;99.90
16964;DHT22;8598;50.508;10.436;2023-07-13T03:51:15;12.20;99.90
16964;DHT22;8598;50.508;10.436;2023-07-13T03:53:43;12.20;99.90
16964;DHT22;8598;50.508;10.436;2023-07-13T03:56:12;12.30;99.90
16964;DHT22;8598;50.508;10.436;2023-07-13T03:58:42;12.40;99.90
16964;DHT22;8598;50.508;10.436;2023-07-13T04:01:10;12.40;99.90
16964;DHT22;8598;50.508;10.436;2023-07-13T04:03:37;12.30;99.90
16964;DHT22;8598;50.508;10.436;2023-07-13T04:06:05;12.20;99.90
16964;DHT22;8598;50.508;10.436;2023-07-13T04:08:36;12.20;99.90
16964;DHT22;8598;50.508;10.436;2023-07-13T04:11:03;12.20;99.90
16964;DHT22;8598;50.508;10.436;2023-07-13T04:13:32;12.10;99.90
16964;DHT22;8598;50.508;10.436;2023-07-13T04:15:58;12.20;99.90
16964;DHT22;8598;50.508;10.436;2023-07-13T04:18:25;12.40;99.90
16964;DHT22;8598;50.508;10.436;2023-07-13T04:20:51;12.50;99.90
16964;DHT22;8598;50.508;10.436;2023-07-13T04:23:18;12.70;99.90
16964;DHT22;8598;50.508;10.436;2023-07-13T04:25:45;12.90;99.90
16964;DHT22;8598;50.508;10.436;2023-07-13T04:28:14;13.00;99.90
16964;DHT22;8598;50.508;10.436;2023-07-13T04:30:44;13.00;99.90
16964;DHT22;8598;50.508;10.436;2023-07-13T04:33:11;13.10;99.90
16964;DHT22;8598;50.508;10.436;2023-07-13T04:35:38;13.10;99.90
16964;DHT22;8598;50.508;10.436;2023-07-13T04:38:05;13.30;99.90
16964;DHT22;8598;50.508;10.436;2023-07-13T04:40:32;13.40;99.90
16964;DHT22;8598;50.508;10.436;2023-07-13T04:42:58;13.70;99.90
16964;DHT22;8598;50.508;10.436;2023-07-13T04:45:25;13.70;99.90
16964;DHT22;8598;50.508;10.436;2023-07-13T04:47:53;14.00;99.90
16964;DHT22;8598;50.508;10.436;2023-07-13T04:50:20;14.00;99.90
16964;DHT22;8598;50.508;10.436;2023-07-13T04:52:49;14.10;99.90
16964;DHT22;8598;50.508;10.436;2023-07-13T04:55:16;14.30;99.90
16964;DHT22;8598;50.508;10.436;2023-07-13T04:57:43;14.50;99.90
16964;DHT22;8598;50.508;10.436;2023-07-13T05:00:11;14.60;99.90
16964;DHT22;8598;50.508;10.436;2023-07-13T05:02:38;15.00;99.90
16964;DHT22;8598;50.508;10.436;2023-07-13T05:05:07;16.00;99.90
16964;DHT22;8598;50.508;10.436;2023-07-13T05:07:34;17.00;99.90
16964;DHT22;8598;50.508;10.436;2023-07-13T05:10:01;17.90;99.90
16964;DHT22;8598;50.508;10.436;2023-07-13T05:12:29;18.80;99.90
16964;DHT22;8598;50.508;10.436;2023-07-13T05:14:56;19.50;99.90
16964;DHT22;8598;50.508;10.436;2023-07-13T05:17:22;20.20;99.90
16964;DHT22;8598;50.508;10.436;2023-07-13T05:19:49;20.60;99.90
16964;DHT22;8598;50.508;10.436;2023-07-13T05:22:17;21.60;99.90
16964;DHT22;8598;50.508;10.436;2023-07-13T05:24:43;21.90;99.90
16964;DHT22;8598;50.508;10.436;2023-07-13T05:27:10;22.30;99.90
16964;DHT22;8598;50.508;10.436;2023-07-13T05:29:37;23.00;99.90
16964;DHT22;8598;50.508;10.436;2023-07-13T05:32:04;23.30;99.90
16964;DHT22;8598;50.508;10.436;2023-07-13T05:34:31;22.80;99.90
16964;DHT22;8598;50.508;10.436;2023-07-13T05:36:57;23.40;99.90
16964;DHT22;8598;50.508;10.436;2023-07-13T05:39:25;22.40;99.90
16964;DHT22;8598;50.508;10.436;2023-07-13T05:41:53;22.90;99.90
16964;DHT22;8598;50.508;10.436;2023-07-13T05:44:19;23.30;99.90
16964;DHT22;8598;50.508;10.436;2023-07-13T05:46:46;23.00;99.90
16964;DHT22;8598;50.508;10.436;2023-07-13T05:49:12;23.50;99.90
16964;DHT22;8598;50.508;10.436;2023-07-13T05:51:39;24.30;99.90
16964;DHT22;8598;50.508;10.436;2023-07-13T05:54:05;24.10;99.90
16964;DHT22;8598;50.508;10.436;2023-07-13T05:56:33;23.70;99.90
16964;DHT22;8598;50.508;10.436;2023-07-13T05:59:00;25.00;99.90
16964;DHT22;8598;50.508;10.436;2023-07-13T06:01:27;24.30;99.90
16964;DHT22;8598;50.508;10.436;2023-07-13T06:03:53;24.80;99.90
16964;DHT22;8598;50.508;10.436;2023-07-13T06:06:20;25.10;99.90
16964;DHT22;8598;50.508;10.436;2023-07-13T06:08:46;25.10;99.90
16964;DHT22;8598;50.508;10.436;2023-07-13T06:11:15;25.20;99.90
16964;DHT22;8598;50.508;10.436;2023-07-13T06:13:44;24.50;99.90
16964;DHT22;8598;50.508;10.436;2023-07-13T06:16:11;24.10;99.90
16964;DHT22;8598;50.508;10.436;2023-07-13T06:18:38;23.50;99.90
16964;DHT22;8598;50.508;10.436;2023-07-13T06:21:07;23.50;99.90
16964;DHT22;8598;50.508;10.436;2023-07-13T06:23:34;24.90;99.90
16964;DHT22;8598;50.508;10.436;2023-07-13T06:26:00;25.50;99.90
16964;DHT22;8598;50.508;10.436;2023-07-13T06:28:28;26.20;99.90
16964;DHT22;8598;50.508;10.436;2023-07-13T06:30:56;27.00;99.90
16964;DHT22;8598;50.508;10.436;2023-07-13T06:33:22;27.10;99.90
16964;DHT22;8598;50.508;10.436;2023-07-13T06:35:49;27.80;99.90
16964;DHT22;8598;50.508;10.436;2023-07-13T06:38:16;27.80;99.90
16964;DHT22;8598;50.508;10.436;2023-07-13T06:40:42;28.10;99.90
16964;DHT22;8598;50.508;10.436;2023-07-13T06:43:09;26.20;99.90
16964;DHT22;8598;50.508;10.436;2023-07-13T06:45:41;26.50;99.90
16964;DHT22;8598;50.508;10.436;2023-07-13T06:48:09;26.60;99.90
16964;DHT22;8598;50.508;10.436;2023-07-13T06:50:36;26.50;99.90
16964;DHT22;8598;50.508;10.436;2023-07-13T06:53:02;26.80;99.90
16964;DHT22;8598;50.508;10.436;2023-07-13T06:55:29;27.70;99.90
16964;DHT22;8598;50.508;10.436;2023-07-13T06:57:55;26.10;99.90
16964;DHT22;8598;50.508;10.436;2023-07-13T07:00:22;27.60;99.90
16964;DHT22;8598;50.508;10.436;2023-07-13T07:02:49;27.30;99.90
16964;DHT22;8598;50.508;10.436;2023-07-13T07:05:17;26.60;99.90
16964;DHT22;8598;50.508;10.436;2023-07-13T07:07:47;27.20;99.90
16964;DHT22;8598;50.508;10.436;2023-07-13T07:10:14;27.10;99.90
16964;DHT22;8598;50.508;10.436;2023-07-13T07:12:40;27.50;99.90
16964;DHT22;8598;50.508;10.436;2023-07-13T07:15:07;27.90;99.90
16964;DHT22;8598;50.508;10.436;2023-07-13T07:17:34;26.20;99.30
16964;DHT22;8598;50.508;10.436;2023-07-13T07:20:00;25.80;99.80
16964;DHT22;8598;50.508;10.436;2023-07-13T07:22:28;25.50;99.90
16964;DHT22;8598;50.508;10.436;2023-07-13T07:24:55;25.20;99.90
16964;DHT22;8598;50.508;10.436;2023-07-13T07:27:22;25.00;99.90
16964;DHT22;8598;50.508;10.436;2023-07-13T07:29:49;24.90;99.40
16964;DHT22;8598;50.508;10.436;2023-07-13T07:32:15;25.80;99.80
16964;DHT22;8598;50.508;10.436;2023-07-13T07:34:42;26.10;98.20
16964;DHT22;8598;50.508;10.436;2023-07-13T07:37:11;26.50;97.20
16964;DHT22;8598;50.508;10.436;2023-07-13T07:39:40;27.10;97.20
16964;DHT22;8598;50.508;10.436;2023-07-13T07:42:06;27.40;96.00
16964;DHT22;8598;50.508;10.436;2023-07-13T07:44:33;27.80;95.60
16964;DHT22;8598;50.508;10.436;2023-07-13T07:47:00;27.80;94.60
16964;DHT22;8598;50.508;10.436;2023-07-13T07:49:27;27.80;94.60
16964;DHT22;8598;50.508;10.436;2023-07-13T07:51:53;27.60;93.50
16964;DHT22;8598;50.508;10.436;2023-07-13T07:54:20;26.20;93.00
16964;DHT22;8598;50.508;10.436;2023-07-13T07:56:48;25.60;94.60
16964;DHT22;8598;50.508;10.436;2023-07-13T07:59:15;25.70;94.70
16964;DHT22;8598;50.508;10.436;2023-07-13T08:01:41;26.50;95.40
16964;DHT22;8598;50.508;10.436;2023-07-13T08:04:09;27.20;95.10
16964;DHT22;8598;50.508;10.436;2023-07-13T08:06:35;28.30;94.90
16964;DHT22;8598;50.508;10.436;2023-07-13T08:09:02;28.30;93.50
16964;DHT22;8598;50.508;10.436;2023-07-13T08:11:29;28.00;92.90
16964;DHT22;8598;50.508;10.436;2023-07-13T08:13:57;28.20;92.30
16964;DHT22;8598;50.508;10.436;2023-07-13T08:16:24;27.50;91.60
16964;DHT22;8598;50.508;10.436;2023-07-13T08:18:51;25.50;93.50
16964;DHT22;8598;50.508;10.436;2023-07-13T08:21:18;26.40;94.60
16964;DHT22;8598;50.508;10.436;2023-07-13T08:23:45;26.40;93.20
16964;DHT22;8598;50.508;10.436;2023-07-13T08:26:12;27.00;93.10
16964;DHT22;8598;50.508;10.436;2023-07-13T08:28:39;26.30;93.00
16964;DHT22;8598;50.508;10.436;2023-07-13T08:31:07;25.90;92.20
16964;DHT22;8598;50.508;10.436;2023-07-13T08:33:35;26.00;92.80
16964;DHT22;8598;50.508;10.436;2023-07-13T08:36:02;25.40;93.50
16964;DHT22;8598;50.508;10.436;2023-07-13T08:38:30;25.30;93.30
16964;DHT22;8598;50.508;10.436;2023-07-13T08:40:57;25.30;94.00
16964;DHT22;8598;50.508;10.436;2023-07-13T08:43:27;24.80;94.00
16964;DHT22;8598;50.508;10.436;2023-07-13T08:46:01;25.40;94.90
16964;DHT22;8598;50.508;10.436;2023-07-13T08:48:33;25.60;93.90
16964;DHT22;8598;50.508;10.436;2023-07-13T08:51:08;25.00;93.50
16964;DHT22;8598;50.508;10.436;2023-07-13T08:53:38;24.50;94.50
16964;DHT22;8598;50.508;10.436;2023-07-13T08:56:11;25.70;94.10
16964;DHT22;8598;50.508;10.436;2023-07-13T08:58:40;25.50;94.20
16964;DHT22;8598;50.508;10.436;2023-07-13T09:01:14;26.20;94.20
16964;DHT22;8598;50.508;10.436;2023-07-13T09:03:57;26.80;93.40
16964;DHT22;8598;50.508;10.436;2023-07-13T09:06:38;26.90;93.20
16964;DHT22;8598;50.508;10.436;2023-07-13T09:09:10;27.20;92.70
16964;DHT22;8598;50.508;10.436;2023-07-13T09:11:47;27.10;93.40
16964;DHT22;8598;50.508;10.436;2023-07-13T09:14:32;26.90;93.30
16964;DHT22;8598;50.508;10.436;2023-07-13T09:17:03;27.20;92.90
16964;DHT22;8598;50.508;10.436;2023-07-13T09:19:33;27.70;93.50
16964;DHT22;8598;50.508;10.436;2023-07-13T09:22:01;27.50;93.50
16964;DHT22;8598;50.508;10.436;2023-07-13T09:24:36;26.00;93.40
16964;DHT22;8598;50.508;10.436;2023-07-13T09:27:12;24.80;94.20
16964;DHT22;8598;50.508;10.436;2023-07-13T09:29:46;24.70;95.50
16964;DHT22;8598;50.508;10.436;2023-07-13T09:32:14;24.60;95.00
16964;DHT22;8598;50.508;10.436;2023-07-13T09:34:50;25.20;94.90
16964;DHT22;8598;50.508;10.436;2023-07-13T09:37:18;24.80;95.50
16964;DHT22;8598;50.508;10.436;2023-07-13T09:39:46;25.60;94.30
16964;DHT22;8598;50.508;10.436;2023-07-13T09:42:15;25.90;95.50
16964;DHT22;8598;50.508;10.436;2023-07-13T09:44:51;26.30;94.30
16964;DHT22;8598;50.508;10.436;2023-07-13T09:47:19;25.90;94.70
16964;DHT22;8598;50.508;10.436;2023-07-13T09:49:56;25.90;94.90
16964;DHT22;8598;50.508;10.436;2023-07-13T09:52:25;25.90;96.30
16964;DHT22;8598;50.508;10.436;2023-07-13T09:54:53;25.70;94.40
16964;DHT22;8598;50.508;10.436;2023-07-13T09:57:25;25.90;94.80
16964;DHT22;8598;50.508;10.436;2023-07-13T09:59:53;26.20;95.00
16964;DHT22;8598;50.508;10.436;2023-07-13T10:02:27;25.60;95.50
16964;DHT22;8598;50.508;10.436;2023-07-13T10:04:58;25.70;96.00
16964;DHT22;8598;50.508;10.436;2023-07-13T10:07:25;26.10;94.60
16964;DHT22;8598;50.508;10.436;2023-07-13T10:09:52;25.40;93.80
16964;DHT22;8598;50.508;10.436;2023-07-13T10:12:19;25.00;94.30
16964;DHT22;8598;50.508;10.436;2023-07-13T10:14:50;25.00;95.60
16964;DHT22;8598;50.508;10.436;2023-07-13T10:17:19;25.20;95.30
16964;DHT22;8598;50.508;10.436;2023-07-13T10:19:47;25.00;94.80
16964;DHT22;8598;50.508;10.436;2023-07-13T10:22:24;25.40;94.70
16964;DHT22;8598;50.508;10.436;2023-07-13T10:24:52;24.90;94.10
16964;DHT22;8598;50.508;10.436;2023-07-13T10:27:23;25.30;95.00
16964;DHT22;8598;50.508;10.436;2023-07-13T10:29:56;25.70;94.90
16964;DHT22;8598;50.508;10.436;2023-07-13T10:32:26;25.50;94.40
16964;DHT22;8598;50.508;10.436;2023-07-13T10:34:53;25.20;95.00
16964;DHT22;8598;50.508;10.436;2023-07-13T10:37:25;24.90;94.90
16964;DHT22;8598;50.508;10.436;2023-07-13T10:39:55;24.70;95.50
16964;DHT22;8598;50.508;10.436;2023-07-13T10:42:29;24.60;95.70
16964;DHT22;8598;50.508;10.436;2023-07-13T10:44:57;24.70;96.20
16964;DHT22;8598;50.508;10.436;2023-07-13T10:47:24;24.80;95.20
16964;DHT22;8598;50.508;10.436;2023-07-13T10:49:54;25.10;95.10
16964;DHT22;8598;50.508;10.436;2023-07-13T10:52:45;24.50;93.80
16964;DHT22;8598;50.508;10.436;2023-07-13T10:55:35;24.30;94.20
16964;DHT22;8598;50.508;10.436;2023-07-13T10:58:08;24.80;95.60
16964;DHT22;8598;50.508;10.436;2023-07-13T11:00:46;25.30;93.20
16964;DHT22;8598;50.508;10.436;2023-07-13T11:03:16;25.10;94.10
16964;DHT22;8598;50.508;10.436;2023-07-13T11:05:44;24.40;94.50
16964;DHT22;8598;50.508;10.436;2023-07-13T11:08:20;24.20;94.20
16964;DHT22;8598;50.508;10.436;2023-07-13T11:10:53;24.30;94.30
16964;DHT22;8598;50.508;10.436;2023-07-13T11:13:56;24.20;94.30
16964;DHT22;8598;50.508;10.436;2023-07-13T11:16:43;25.20;94.30
16964;DHT22;8598;50.508;10.436;2023-07-13T11:19:41;25.20;94.20
16964;DHT22;8598;50.508;10.436;2023-07-13T11:22:16;25.60;94.30
16964;DHT22;8598;50.508;10.436;2023-07-13T11:24:56;24.80;94.20
16964;DHT22;8598;50.508;10.436;2023-07-13T11:27:34;24.20;94.70
16964;DHT22;8598;50.508;10.436;2023-07-13T11:30:24;24.40;95.20
16964;DHT22;8598;50.508;10.436;2023-07-13T11:33:02;24.80;94.40
16964;DHT22;8598;50.508;10.436;2023-07-13T11:35:34;25.20;93.90
16964;DHT22;8598;50.508;10.436;2023-07-13T11:38:02;25.00;94.30
16964;DHT22;8598;50.508;10.436;2023-07-13T11:40:30;24.70;92.70
16964;DHT22;8598;50.508;10.436;2023-07-13T11:43:00;25.20;93.60
16964;DHT22;8598;50.508;10.436;2023-07-13T11:45:27;25.60;93.60
16964;DHT22;8598;50.508;10.436;2023-07-13T11:47:54;25.70;94.00
16964;DHT22;8598;50.508;10.436;2023-07-13T11:50:24;25.80;93.10
16964;DHT22;8598;50.508;10.436;2023-07-13T11:52:52;25.60;92.90
16964;DHT22;8598;50.508;10.436;2023-07-13T11:55:22;25.50;94.30
16964;DHT22;8598;50.508;10.436;2023-07-13T11:57:57;25.00;92.60
16964;DHT22;8598;50.508;10.436;2023-07-13T12:00:28;24.60;93.20
16964;DHT22;8598;50.508;10.436;2023-07-13T12:02:58;24.50;94.80
16964;DHT22;8598;50.508;10.436;2023-07-13T12:05:26;25.00;94.80
16964;DHT22;8598;50.508;10.436;2023-07-13T12:07:54;25.30;93.50
16964;DHT22;8598;50.508;10.436;2023-07-13T12:10:22;25.50;94.00
16964;DHT22;8598;50.508;10.436;2023-07-13T12:12:54;25.10;93.80
16964;DHT22;8598;50.508;10.436;2023-07-13T12:15:23;24.90;93.80
16964;DHT22;8598;50.508;10.436;2023-07-13T12:17:50;25.00;93.70
16964;DHT22;8598;50.508;10.436;2023-07-13T12:20:23;25.40;94.20
16964;DHT22;8598;50.508;10.436;2023-07-13T12:22:51;25.20;94.30
16964;DHT22;8598;50.508;10.436;2023-07-13T12:25:19;25.60;94.70
16964;DHT22;8598;50.508;10.436;2023-07-13T12:27:50;26.20;94.20
16964;DHT22;8598;50.508;10.436;2023-07-13T12:30:30;26.30;93.40
16964;DHT22;8598;50.508;10.436;2023-07-13T12:33:00;25.80;93.00
16964;DHT22;8598;50.508;10.436;2023-07-13T12:35:29;25.80;93.80
16964;DHT22;8598;50.508;10.436;2023-07-13T12:38:01;25.60;93.40
16964;DHT22;8598;50.508;10.436;2023-07-13T12:40:32;25.90;93.30
16964;DHT22;8598;50.508;10.436;2023-07-13T12:43:00;26.20;91.80
16964;DHT22;8598;50.508;10.436;2023-07-13T12:45:31;25.60;92.70
16964;DHT22;8598;50.508;10.436;2023-07-13T12:47:59;25.50;92.80
16964;DHT22;8598;50.508;10.436;2023-07-13T12:50:36;25.40;93.10
16964;DHT22;8598;50.508;10.436;2023-07-13T12:53:05;25.20;94.20
16964;DHT22;8598;50.508;10.436;2023-07-13T12:55:41;24.80;92.80
16964;DHT22;8598;50.508;10.436;2023-07-13T12:58:17;24.50;93.40
16964;DHT22;8598;50.508;10.436;2023-07-13T13:00:50;24.30;92.70
16964;DHT22;8598;50.508;10.436;2023-07-13T13:03:23;24.20;92.60
16964;DHT22;8598;50.508;10.436;2023-07-13T13:05:57;24.20;93.10
16964;DHT22;8598;50.508;10.436;2023-07-13T13:08:25;24.40;93.90
16964;DHT22;8598;50.508;10.436;2023-07-13T13:10:52;24.70;92.50
16964;DHT22;8598;50.508;10.436;2023-07-13T13:13:18;24.60;92.00
16964;DHT22;8598;50.508;10.436;2023-07-13T13:15:45;24.80;92.10
16964;DHT22;8598;50.508;10.436;2023-07-13T13:18:17;25.20;91.10
16964;DHT22;8598;50.508;10.436;2023-07-13T13:20:45;25.70;93.50
16964;DHT22;8598;50.508;10.436;2023-07-13T13:23:13;25.70;92.10
16964;DHT22;8598;50.508;10.436;2023-07-13T13:25:41;25.20;91.90
16964;DHT22;8598;50.508;10.436;2023-07-13T13:28:13;25.10;92.30
16964;DHT22;8598;50.508;10.436;2023-07-13T13:30:42;25.10;92.10
16964;DHT22;8598;50.508;10.436;2023-07-13T13:33:11;25.30;92.30
16964;DHT22;8598;50.508;10.436;2023-07-13T13:35:40;25.30;93.00
16964;DHT22;8598;50.508;10.436;2023-07-13T13:38:10;24.70;92.60
16964;DHT22;8598;50.508;10.436;2023-07-13T13:40:38;24.50;92.90
16964;DHT22;8598;50.508;10.436;2023-07-13T13:43:14;24.20;92.50
16964;DHT22;8598;50.508;10.436;2023-07-13T13:45:41;24.40;92.40
16964;DHT22;8598;50.508;10.436;2023-07-13T13:48:14;24.60;92.20
16964;DHT22;8598;50.508;10.436;2023-07-13T13:50:42;24.60;93.10
16964;DHT22;8598;50.508;10.436;2023-07-13T13:53:11;25.20;93.30
16964;DHT22;8598;50.508;10.436;2023-07-13T13:55:39;25.50;92.60
16964;DHT22;8598;50.508;10.436;2023-07-13T13:58:08;25.30;92.50
16964;DHT22;8598;50.508;10.436;2023-07-13T14:00:35;25.00;92.50
16964;DHT22;8598;50.508;10.436;2023-07-13T14:03:01;25.20;92.50
16964;DHT22;8598;50.508;10.436;2023-07-13T14:05:28;25.20;92.30
16964;DHT22;8598;50.508;10.436;2023-07-13T14:07:57;25.10;92.20
16964;DHT22;8598;50.508;10.436;2023-07-13T14:10:25;24.80;92.00
16964;DHT22;8598;50.508;10.436;2023-07-13T14:12:54;24.70;93.00
16964;DHT22;8598;50.508;10.436;2023-07-13T14:15:25;25.20;93.00
16964;DHT22;8598;50.508;10.436;2023-07-13T14:17:52;25.30;92.70
16964;DHT22;8598;50.508;10.436;2023-07-13T14:20:21;25.60;91.60
16964;DHT22;8598;50.508;10.436;2023-07-13T14:22:49;25.70;92.90
16964;DHT22;8598;50.508;10.436;2023-07-13T14:25:19;25.90;92.30
16964;DHT22;8598;50.508;10.436;2023-07-13T14:27:49;25.80;93.40
16964;DHT22;8598;50.508;10.436;2023-07-13T14:30:18;25.70;93.10
16964;DHT22;8598;50.508;10.436;2023-07-13T14:32:46;25.30;93.30
16964;DHT22;8598;50.508;10.436;2023-07-13T14:35:15;25.40;92.90
16964;DHT22;8598;50.508;10.436;2023-07-13T14:37:43;25.00;92.40
16964;DHT22;8598;50.508;10.436;2023-07-13T14:40:13;24.70;92.90
16964;DHT22;8598;50.508;10.436;2023-07-13T14:42:41;24.50;93.00
16964;DHT22;8598;50.508;10.436;2023-07-13T14:45:13;24.60;93.60
16964;DHT22;8598;50.508;10.436;2023-07-13T14:47:40;24.80;93.00
16964;DHT22;8598;50.508;10.436;2023-07-13T14:50:13;24.50;92.80
16964;DHT22;8598;50.508;10.436;2023-07-13T14:52:41;24.40;93.30
16964;DHT22;8598;50.508;10.436;2023-07-13T14:55:10;24.40;92.90
16964;DHT22;8598;50.508;10.436;2023-07-13T14:57:37;24.40;92.50
16964;DHT22;8598;50.508;10.436;2023-07-13T15:00:12;24.30;93.50
16964;DHT22;8598;50.508;10.436;2023-07-13T15:02:41;24.60;93.30
16964;DHT22;8598;50.508;10.436;2023-07-13T15:05:14;24.80;93.40
16964;DHT22;8598;50.508;10.436;2023-07-13T15:07:41;25.00;93.30
16964;DHT22;8598;50.508;10.436;2023-07-13T15:10:16;25.20;93.60
16964;DHT22;8598;50.508;10.436;2023-07-13T15:12:43;25.30;93.50
16964;DHT22;8598;50.508;10.436;2023-07-13T15:15:12;25.40;92.80
16964;DHT22;8598;50.508;10.436;2023-07-13T15:17:41;25.20;92.90
16964;DHT22;8598;50.508;10.436;2023-07-13T15:20:19;25.20;93.30
16964;DHT22;8598;50.508;10.436;2023-07-13T15:22:46;25.30;93.10
16964;DHT22;8598;50.508;10.436;2023-07-13T15:25:16;25.30;93.50
16964;DHT22;8598;50.508;10.436;2023-07-13T15:27:43;25.50;93.30
16964;DHT22;8598;50.508;10.436;2023-07-13T15:30:14;25.40;92.90
16964;DHT22;8598;50.508;10.436;2023-07-13T15:32:41;25.40;93.20
16964;DHT22;8598;50.508;10.436;2023-07-13T15:35:14;25.30;92.70
16964;DHT22;8598;50.508;10.436;2023-07-13T15:37:41;25.30;93.00
16964;DHT22;8598;50.508;10.436;2023-07-13T15:40:09;25.40;92.90
16964;DHT22;8598;50.508;10.436;2023-07-13T15:42:37;25.30;93.30